createdAt,value
2023-05-14T00:00:53.520Z,101445.09
2023-05-14T00:03:20.901Z,101442.06
2023-05-14T00:05:48.671Z,101437.22
2023-05-14T00:08:15.886Z,101438.63
2023-05-14T00:10:43.214Z,101444.66
2023-05-14T00:13:10.715Z,101441.56
2023-05-14T00:15:38.167Z,101437.09
2023-05-14T00:18:06.184Z,101428.91
2023-05-14T00:20:33.654Z,101429.03
2023-05-14T00:23:01.082Z,101433.69
2023-05-14T00:25:28.685Z,101438.72
2023-05-14T00:27:55.931Z,101437.94
2023-05-14T00:30:24.065Z,101443.59
2023-05-14T00:32:51.556Z,101436.53
2023-05-14T00:35:20.534Z,101432.25
2023-05-14T00:37:47.810Z,101442.13
2023-05-14T00:40:15.530Z,101434.16
2023-05-14T00:42:42.935Z,101420.00
2023-05-14T00:45:10.784Z,101422.34
2023-05-14T00:47:39.836Z,101416.31
2023-05-14T00:50:07.773Z,101424.22
2023-05-14T00:52:35.165Z,101419.28
2023-05-14T00:55:04.303Z,101415.66
2023-05-14T00:57:32.009Z,101417.84
2023-05-14T00:59:59.622Z,101417.13
2023-05-14T01:02:27.145Z,101417.78
2023-05-14T01:04:54.813Z,101414.16
2023-05-14T01:07:28.022Z,101413.69
2023-05-14T01:10:01.561Z,101415.22
2023-05-14T01:12:52.638Z,101408.66
2023-05-14T01:15:22.416Z,101408.19
2023-05-14T01:18:11.036Z,101402.22
2023-05-14T01:20:39.391Z,101402.34
2023-05-14T01:23:08.713Z,101404.38
2023-05-14T01:25:36.086Z,101411.84
2023-05-14T01:28:17.451Z,101408.78
2023-05-14T01:30:58.701Z,101418.91
2023-05-14T01:33:27.970Z,101411.53
2023-05-14T01:35:55.960Z,101421.06
2023-05-14T01:38:23.947Z,101422.03
2023-05-14T01:40:51.762Z,101420.53
2023-05-14T01:43:19.386Z,101420.84
2023-05-14T01:45:47.082Z,101413.69
2023-05-14T01:48:14.972Z,101411.16
2023-05-14T01:50:42.188Z,101421.19
2023-05-14T01:53:09.484Z,101405.66
2023-05-14T01:55:36.782Z,101412.59
2023-05-14T01:58:04.628Z,101414.47
2023-05-14T02:00:32.068Z,101416.78
2023-05-14T02:02:59.596Z,101411.50
2023-05-14T02:05:26.942Z,101417.13
2023-05-14T02:07:54.872Z,101410.41
2023-05-14T02:10:22.361Z,101421.13
2023-05-14T02:12:50.358Z,101416.53
2023-05-14T02:15:17.642Z,101416.03
2023-05-14T02:17:45.110Z,101414.59
2023-05-14T02:20:12.798Z,101411.38
2023-05-14T02:22:42.335Z,101419.47
2023-05-14T02:25:09.939Z,101415.31
2023-05-14T02:27:37.285Z,101411.84
2023-05-14T02:30:06.198Z,101412.94
2023-05-14T02:32:33.847Z,101408.06
2023-05-14T02:35:01.462Z,101406.09
2023-05-14T02:37:28.703Z,101417.81
2023-05-14T02:39:55.946Z,101412.19
2023-05-14T02:42:23.284Z,101406.84
2023-05-14T02:44:52.348Z,101408.41
2023-05-14T02:47:19.684Z,101407.41
2023-05-14T02:49:46.930Z,101397.59
2023-05-14T02:52:16.416Z,101412.84
2023-05-14T02:54:43.778Z,101404.09
2023-05-14T02:57:12.093Z,101412.03
2023-05-14T02:59:39.837Z,101408.03
2023-05-14T03:02:07.689Z,101401.84
2023-05-14T03:04:35.502Z,101407.88
2023-05-14T03:07:03.131Z,101409.56
2023-05-14T03:09:30.549Z,101407.41
2023-05-14T03:11:57.826Z,101409.25
2023-05-14T03:14:25.092Z,101407.22
2023-05-14T03:16:52.506Z,101409.66
2023-05-14T03:19:19.736Z,101403.38
2023-05-14T03:21:46.976Z,101414.16
2023-05-14T03:24:14.195Z,101424.53
2023-05-14T03:26:41.424Z,101415.34
2023-05-14T03:29:09.806Z,101419.41
2023-05-14T03:31:37.212Z,101414.50
2023-05-14T03:34:04.549Z,101430.41
2023-05-14T03:36:32.113Z,101419.28
2023-05-14T03:38:59.337Z,101422.84
2023-05-14T03:41:26.613Z,101421.94
2023-05-14T03:43:53.948Z,101413.91
2023-05-14T03:46:21.181Z,101420.16
2023-05-14T03:48:48.492Z,101422.97
2023-05-14T03:51:15.869Z,101424.38
2023-05-14T03:53:43.273Z,101408.69
2023-05-14T03:56:10.715Z,101413.31
2023-05-14T03:58:38.418Z,101415.63
2023-05-14T04:01:05.744Z,101422.63
2023-05-14T04:03:33.219Z,101419.28
2023-05-14T04:06:00.715Z,101429.41
2023-05-14T04:08:27.997Z,101420.69
2023-05-14T04:10:56.967Z,101418.91
2023-05-14T04:13:24.263Z,101418.97
2023-05-14T04:15:51.816Z,101427.16
2023-05-14T04:18:19.339Z,101418.28
2023-05-14T04:20:46.730Z,101425.44
2023-05-14T04:23:13.892Z,101416.75
2023-05-14T04:25:41.156Z,101419.88
2023-05-14T04:28:08.638Z,101421.22
2023-05-14T04:30:35.885Z,101415.25
2023-05-14T04:33:03.377Z,101428.00
2023-05-14T04:35:30.776Z,101427.19
2023-05-14T04:37:57.998Z,101429.38
2023-05-14T04:40:25.661Z,101426.72
2023-05-14T04:42:53.136Z,101422.50
2023-05-14T04:45:20.621Z,101425.38
2023-05-14T04:47:47.946Z,101429.31
2023-05-14T04:50:15.472Z,101423.59
2023-05-14T04:52:42.773Z,101423.91
2023-05-14T04:55:10.276Z,101435.00
2023-05-14T04:57:37.916Z,101425.97
2023-05-14T05:00:06.061Z,101428.75
2023-05-14T05:02:34.822Z,101419.41
2023-05-14T05:05:04.174Z,101420.81
2023-05-14T05:07:31.509Z,101423.66
2023-05-14T05:09:58.968Z,101418.75
2023-05-14T05:12:29.903Z,101422.56
2023-05-14T05:14:57.736Z,101415.94
2023-05-14T05:17:29.463Z,101408.16
2023-05-14T05:19:56.829Z,101422.56
2023-05-14T05:22:24.478Z,101421.13
2023-05-14T05:24:51.907Z,101418.59
2023-05-14T05:27:21.008Z,101413.59
2023-05-14T05:29:48.372Z,101412.88
2023-05-14T05:32:15.612Z,101422.97
2023-05-14T05:34:42.870Z,101415.94
2023-05-14T05:37:12.876Z,101410.59
2023-05-14T05:39:40.324Z,101419.34
2023-05-14T05:42:07.911Z,101434.69
2023-05-14T05:44:35.523Z,101430.13
2023-05-14T05:47:03.061Z,101440.13
2023-05-14T05:49:30.528Z,101438.84
2023-05-14T05:51:57.752Z,101432.13
2023-05-14T05:54:25.544Z,101447.44
2023-05-14T05:56:52.838Z,101442.06
2023-05-14T05:59:20.090Z,101447.88
2023-05-14T06:01:48.190Z,101447.81
2023-05-14T06:04:15.515Z,101456.25
2023-05-14T06:06:42.914Z,101450.56
2023-05-14T06:09:10.539Z,101446.22
2023-05-14T06:11:37.866Z,101454.16
2023-05-14T06:14:05.410Z,101454.00
2023-05-14T06:16:32.763Z,101461.25
2023-05-14T06:19:00.116Z,101459.53
2023-05-14T06:21:27.545Z,101471.81
2023-05-14T06:23:54.879Z,101468.00
2023-05-14T06:26:22.159Z,101477.22
2023-05-14T06:28:49.598Z,101473.13
2023-05-14T06:31:16.875Z,101476.06
2023-05-14T06:33:45.220Z,101490.19
2023-05-14T06:36:12.913Z,101476.44
2023-05-14T06:38:40.257Z,101481.16
2023-05-14T06:41:07.565Z,101496.16
2023-05-14T06:43:34.950Z,101487.50
2023-05-14T06:46:02.558Z,101485.84
2023-05-14T06:48:30.968Z,101490.38
2023-05-14T06:50:58.350Z,101498.88
2023-05-14T06:53:25.544Z,101494.75
2023-05-14T06:55:52.761Z,101486.97
2023-05-14T06:58:20.005Z,101490.00
2023-05-14T07:00:48.346Z,101481.75
2023-05-14T07:03:15.669Z,101481.69
2023-05-14T07:05:44.989Z,101488.56
2023-05-14T07:08:12.305Z,101484.69
2023-05-14T07:10:39.731Z,101491.66
2023-05-14T07:13:07.939Z,101482.53
2023-05-14T07:15:35.355Z,101483.84
2023-05-14T07:18:02.731Z,101485.22
2023-05-14T07:20:29.993Z,101491.72
2023-05-14T07:22:57.371Z,101494.69
2023-05-14T07:25:24.761Z,101484.56
2023-05-14T07:27:52.075Z,101482.84
2023-05-14T07:30:19.897Z,101485.06
2023-05-14T07:32:47.205Z,101489.88
2023-05-14T07:35:14.495Z,101502.59
2023-05-14T07:37:42.894Z,101502.97
2023-05-14T07:40:10.492Z,101513.44
2023-05-14T07:42:37.894Z,101507.56
2023-05-14T07:45:05.822Z,101504.56
2023-05-14T07:47:33.836Z,101501.75
2023-05-14T07:50:01.213Z,101509.59
2023-05-14T07:52:31.007Z,101498.03
2023-05-14T07:54:58.289Z,101501.84
2023-05-14T07:57:26.347Z,101500.22
2023-05-14T07:59:53.664Z,101496.13
2023-05-14T08:02:21.096Z,101493.56
2023-05-14T08:04:48.635Z,101499.78
2023-05-14T08:07:15.961Z,101497.03
2023-05-14T08:09:43.294Z,101486.75
2023-05-14T08:12:10.537Z,101497.09
2023-05-14T08:14:37.737Z,101496.91
2023-05-14T08:17:04.976Z,101500.31
2023-05-14T08:19:32.918Z,101507.28
2023-05-14T08:22:00.217Z,101501.00
2023-05-14T08:24:27.620Z,101492.53
2023-05-14T08:26:55.894Z,101503.63
2023-05-14T08:29:23.353Z,101505.56
2023-05-14T08:31:51.275Z,101501.97
2023-05-14T08:34:18.825Z,101511.63
2023-05-14T08:36:46.340Z,101502.34
2023-05-14T08:39:13.875Z,101507.19
2023-05-14T08:41:41.469Z,101506.34
2023-05-14T08:44:19.057Z,101511.88
2023-05-14T08:46:46.511Z,101516.09
2023-05-14T08:49:13.695Z,101513.16
2023-05-14T08:51:42.754Z,101505.13
2023-05-14T08:54:10.751Z,101508.81
2023-05-14T08:56:39.013Z,101508.22
2023-05-14T08:59:06.294Z,101513.38
2023-05-14T09:01:33.663Z,101510.19
2023-05-14T09:04:07.100Z,101511.88
2023-05-14T09:06:37.543Z,101513.28
2023-05-14T09:09:05.057Z,101508.59
2023-05-14T09:11:32.336Z,101493.72
2023-05-14T09:13:59.680Z,101498.47
2023-05-14T09:16:27.009Z,101495.59
2023-05-14T09:18:54.545Z,101501.31
2023-05-14T09:21:21.856Z,101503.06
2023-05-14T09:23:53.878Z,101508.19
2023-05-14T09:26:24.608Z,101501.06
2023-05-14T09:29:00.636Z,101511.25
2023-05-14T09:31:32.586Z,101500.94
2023-05-14T09:34:00.580Z,101502.16
2023-05-14T09:36:27.837Z,101500.56
2023-05-14T09:38:58.115Z,101497.72
2023-05-14T09:41:25.785Z,101497.63
2023-05-14T09:43:53.395Z,101497.78
2023-05-14T09:46:22.855Z,101494.16
2023-05-14T09:48:50.304Z,101501.00
2023-05-14T09:51:17.755Z,101500.31
2023-05-14T09:53:46.580Z,101496.47
2023-05-14T09:56:15.021Z,101495.00
2023-05-14T09:58:42.516Z,101496.81
2023-05-14T10:01:09.927Z,101491.59
2023-05-14T10:03:37.335Z,101493.09
2023-05-14T10:06:05.794Z,101502.53
2023-05-14T10:08:41.596Z,101497.78
2023-05-14T10:11:13.523Z,101492.03
2023-05-14T10:13:42.776Z,101502.47
2023-05-14T10:16:24.450Z,101500.88
2023-05-14T10:18:57.151Z,101498.53
2023-05-14T10:21:25.896Z,101501.75
2023-05-14T10:23:53.144Z,101487.47
2023-05-14T10:26:23.206Z,101495.81
2023-05-14T10:28:51.357Z,101492.22
2023-05-14T10:31:18.666Z,101498.28
2023-05-14T10:33:50.741Z,101491.06
2023-05-14T10:36:18.751Z,101487.38
2023-05-14T10:38:46.989Z,101478.16
2023-05-14T10:41:17.702Z,101477.75
2023-05-14T10:43:45.120Z,101474.75
2023-05-14T10:46:13.665Z,101477.44
2023-05-14T10:48:44.497Z,101463.94
2023-05-14T10:51:12.823Z,101472.72
2023-05-14T10:53:48.650Z,101462.50
2023-05-14T10:56:30.900Z,101472.00
2023-05-14T10:58:58.547Z,101461.13
2023-05-14T11:01:27.871Z,101462.16
2023-05-14T11:03:58.447Z,101446.00
2023-05-14T11:06:26.549Z,101452.78
2023-05-14T11:08:54.739Z,101460.66
2023-05-14T11:11:22.233Z,101454.97
2023-05-14T11:13:50.563Z,101448.22
2023-05-14T11:16:23.323Z,101449.09
2023-05-14T11:19:02.050Z,101444.19
2023-05-14T11:21:30.347Z,101445.06
2023-05-14T11:23:57.671Z,101438.38
2023-05-14T11:26:26.185Z,101431.50
2023-05-14T11:28:53.738Z,101443.34
2023-05-14T11:31:22.443Z,101438.00
2023-05-14T11:33:49.782Z,101425.47
2023-05-14T11:36:17.177Z,101425.44
2023-05-14T11:38:49.099Z,101421.28
2023-05-14T11:41:16.421Z,101416.38
2023-05-14T11:43:43.865Z,101420.31
2023-05-14T11:46:16.759Z,101415.56
2023-05-14T11:48:44.199Z,101416.34
2023-05-14T11:51:11.438Z,101407.53
2023-05-14T11:53:38.776Z,101420.69
2023-05-14T11:56:08.205Z,101410.78
2023-05-14T11:58:37.116Z,101407.88
2023-05-14T12:01:04.856Z,101400.13
2023-05-14T12:03:32.468Z,101406.13
2023-05-14T12:06:01.868Z,101404.16
2023-05-14T12:08:31.307Z,101398.19
2023-05-14T12:10:59.973Z,101396.63
2023-05-14T12:13:28.698Z,101399.38
2023-05-14T12:15:57.517Z,101406.44
2023-05-14T12:18:28.162Z,101395.16
2023-05-14T12:20:55.822Z,101392.22
2023-05-14T12:23:30.252Z,101390.13
2023-05-14T12:26:06.295Z,101385.69
2023-05-14T12:28:37.556Z,101387.31
2023-05-14T12:31:05.249Z,101366.91
2023-05-14T12:33:32.563Z,101375.09
2023-05-14T12:38:33.903Z,101378.22
2023-05-14T12:41:01.528Z,101356.22
2023-05-14T12:43:31.593Z,101353.06
2023-05-14T12:45:58.875Z,101345.69
2023-05-14T12:48:26.157Z,101344.94
2023-05-14T12:50:53.384Z,101341.34
2023-05-14T12:53:20.728Z,101335.25
2023-05-14T12:55:49.635Z,101337.97
2023-05-14T12:58:16.865Z,101338.41
2023-05-14T13:00:44.361Z,101326.72
2023-05-14T13:03:11.733Z,101315.47
2023-05-14T13:05:39.017Z,101325.56
2023-05-14T13:08:06.320Z,101313.19
2023-05-14T13:10:33.634Z,101309.94
2023-05-14T13:13:02.527Z,101301.28
2023-05-14T13:15:31.553Z,101298.13
2023-05-14T13:17:58.877Z,101303.22
2023-05-14T13:20:27.648Z,101292.56
2023-05-14T13:22:55.087Z,101289.59
2023-05-14T13:25:23.752Z,101288.75
2023-05-14T13:27:51.218Z,101295.22
2023-05-14T13:30:18.900Z,101279.81
2023-05-14T13:32:46.657Z,101281.19
2023-05-14T13:35:14.286Z,101271.63
2023-05-14T13:37:43.557Z,101270.75
2023-05-14T13:40:11.275Z,101271.59
2023-05-14T13:42:39.861Z,101275.03
2023-05-14T13:45:11.695Z,101272.72
2023-05-14T13:47:40.279Z,101260.44
2023-05-14T13:50:08.186Z,101264.25
2023-05-14T13:52:35.671Z,101261.13
2023-05-14T13:55:02.972Z,101255.09
2023-05-14T13:57:30.297Z,101262.38
2023-05-14T13:59:57.621Z,101251.84
2023-05-14T14:02:24.891Z,101255.88
2023-05-14T14:04:52.305Z,101250.56
2023-05-14T14:07:21.290Z,101242.03
2023-05-14T14:09:48.554Z,101236.81
2023-05-14T14:12:16.001Z,101235.44
2023-05-14T14:14:43.462Z,101227.41
2023-05-14T14:17:10.719Z,101229.09
2023-05-14T14:19:38.008Z,101233.56
2023-05-14T14:22:05.343Z,101221.72
2023-05-14T14:24:32.635Z,101235.28
2023-05-14T14:26:59.924Z,101224.78
2023-05-14T14:29:28.922Z,101209.91
2023-05-14T14:31:57.640Z,101196.44
2023-05-14T14:34:25.109Z,101199.38
2023-05-14T14:36:52.408Z,101194.06
2023-05-14T14:39:19.808Z,101195.25
2023-05-14T14:41:47.866Z,101186.13
2023-05-14T14:44:15.128Z,101183.44
2023-05-14T14:46:42.968Z,101182.09
2023-05-14T14:49:10.429Z,101176.91
2023-05-14T14:51:37.760Z,101174.91
2023-05-14T14:54:05.229Z,101174.59
2023-05-14T14:56:32.608Z,101174.75
2023-05-14T14:58:59.864Z,101174.00
2023-05-14T15:01:27.494Z,101176.81
2023-05-14T15:03:54.984Z,101172.91
2023-05-14T15:06:23.514Z,101170.13
2023-05-14T15:08:50.823Z,101171.72
2023-05-14T15:11:18.171Z,101172.81
2023-05-14T15:13:45.532Z,101172.50
2023-05-14T15:16:13.803Z,101184.31
2023-05-14T15:18:41.153Z,101170.38
2023-05-14T15:21:10.095Z,101170.53
2023-05-14T15:23:37.379Z,101164.09
2023-05-14T15:26:04.823Z,101172.22
2023-05-14T15:28:32.051Z,101171.06
2023-05-14T15:30:59.390Z,101175.81
2023-05-14T15:33:26.681Z,101166.56
2023-05-14T15:35:54.075Z,101167.19
2023-05-14T15:38:21.487Z,101169.69
2023-05-14T15:40:51.109Z,101160.78
2023-05-14T15:43:18.433Z,101163.50
2023-05-14T15:45:46.131Z,101151.19
2023-05-14T15:48:13.551Z,101153.69
2023-05-14T15:50:41.950Z,101162.34
2023-05-14T15:53:09.273Z,101150.81
2023-05-14T15:55:36.595Z,101159.41
2023-05-14T15:58:03.857Z,101151.34
2023-05-14T16:00:31.142Z,101166.06
2023-05-14T16:02:58.396Z,101150.72
2023-05-14T16:05:25.881Z,101149.75
2023-05-14T16:07:53.153Z,101150.94
2023-05-14T16:10:21.531Z,101145.91
2023-05-14T16:12:49.045Z,101148.63
2023-05-14T16:15:16.526Z,101150.00
2023-05-14T16:17:43.769Z,101153.13
2023-05-14T16:20:11.883Z,101154.16
2023-05-14T16:22:39.159Z,101140.56
2023-05-14T16:25:06.730Z,101145.31
2023-05-14T16:27:34.609Z,101144.81
2023-05-14T16:30:01.883Z,101149.53
2023-05-14T16:32:29.202Z,101141.16
2023-05-14T16:34:56.625Z,101144.28
2023-05-14T16:37:25.357Z,101142.13
2023-05-14T16:39:52.677Z,101148.72
2023-05-14T16:42:19.912Z,101145.69
2023-05-14T16:44:47.182Z,101146.50
2023-05-14T16:47:14.406Z,101147.94
2023-05-14T16:49:41.744Z,101144.16
2023-05-14T16:52:08.987Z,101143.28
2023-05-14T16:54:36.457Z,101140.00
2023-05-14T16:57:04.350Z,101145.88
2023-05-14T16:59:31.770Z,101136.00
2023-05-14T17:01:59.015Z,101135.91
2023-05-14T17:04:26.708Z,101137.84
2023-05-14T17:06:54.488Z,101136.22
2023-05-14T17:09:21.805Z,101143.31
2023-05-14T17:11:49.163Z,101129.84
2023-05-14T17:14:16.445Z,101128.97
2023-05-14T17:16:43.761Z,101123.84
2023-05-14T17:19:11.215Z,101120.47
2023-05-14T17:21:38.591Z,101120.31
2023-05-14T17:24:06.373Z,101127.03
2023-05-14T17:26:34.009Z,101122.69
2023-05-14T17:29:02.174Z,101121.50
2023-05-14T17:31:29.588Z,101129.09
2023-05-14T17:33:56.969Z,101134.88
2023-05-14T17:36:24.561Z,101119.47
2023-05-14T17:38:52.496Z,101125.59
2023-05-14T17:41:19.701Z,101122.16
2023-05-14T17:43:47.475Z,101128.03
2023-05-14T17:46:14.804Z,101138.09
2023-05-14T17:48:42.189Z,101126.63
2023-05-14T17:51:09.448Z,101127.78
2023-05-14T17:53:36.762Z,101130.19
2023-05-14T17:56:04.495Z,101137.66
2023-05-14T17:58:31.896Z,101138.19
2023-05-14T18:00:59.292Z,101135.50
2023-05-14T18:03:27.017Z,101132.69
2023-05-14T18:05:54.478Z,101132.00
2023-05-14T18:08:22.457Z,101133.16
2023-05-14T18:10:49.814Z,101140.44
2023-05-14T18:13:17.131Z,101149.63
2023-05-14T18:15:44.490Z,101146.09
2023-05-14T18:18:11.941Z,101148.44
2023-05-14T18:20:39.509Z,101148.38
2023-05-14T18:23:06.917Z,101159.47
2023-05-14T18:25:34.347Z,101146.84
2023-05-14T18:28:01.611Z,101154.28
2023-05-14T18:30:28.992Z,101151.59
2023-05-14T18:32:56.361Z,101157.63
2023-05-14T18:35:23.970Z,101157.72
2023-05-14T18:37:51.395Z,101165.66
2023-05-14T18:40:19.043Z,101160.31
2023-05-14T18:42:46.349Z,101161.41
2023-05-14T18:45:13.933Z,101164.03
2023-05-14T18:47:41.350Z,101163.25
2023-05-14T18:50:09.040Z,101161.44
2023-05-14T18:52:36.724Z,101157.78
2023-05-14T18:55:05.105Z,101156.63
2023-05-14T18:57:32.969Z,101170.72
2023-05-14T19:00:02.100Z,101170.06
2023-05-14T19:02:29.494Z,101173.06
2023-05-14T19:04:57.161Z,101168.84
2023-05-14T19:07:24.424Z,101169.63
2023-05-14T19:09:52.086Z,101163.84
2023-05-14T19:12:21.580Z,101171.75
2023-05-14T19:14:48.870Z,101169.00
2023-05-14T19:17:19.127Z,101170.94
2023-05-14T19:19:47.727Z,101173.22
2023-05-14T19:22:15.001Z,101164.22
2023-05-14T19:24:42.272Z,101174.53
2023-05-14T19:27:10.200Z,101187.03
2023-05-14T19:29:37.691Z,101181.81
2023-05-14T19:32:05.470Z,101180.97
2023-05-14T19:34:32.864Z,101183.44
2023-05-14T19:37:00.766Z,101183.97
2023-05-14T19:39:28.017Z,101193.72
2023-05-14T19:41:55.413Z,101199.22
2023-05-14T19:44:22.904Z,101192.53
2023-05-14T19:46:51.001Z,101207.03
2023-05-14T19:49:18.445Z,101199.47
2023-05-14T19:51:45.883Z,101201.06
2023-05-14T19:54:13.207Z,101204.63
2023-05-14T19:56:40.478Z,101209.56
2023-05-14T19:59:07.960Z,101201.88
2023-05-14T20:01:35.328Z,101213.22
2023-05-14T20:04:02.756Z,101215.75
2023-05-14T20:06:30.223Z,101211.22
2023-05-14T20:08:57.600Z,101215.13
2023-05-14T20:11:25.078Z,101212.31
2023-05-14T20:13:52.396Z,101211.84
2023-05-14T20:16:19.925Z,101218.69
2023-05-14T20:18:47.470Z,101223.03
2023-05-14T20:21:14.924Z,101228.47
2023-05-14T20:23:42.220Z,101219.44
2023-05-14T20:26:09.528Z,101219.00
2023-05-14T20:28:36.824Z,101225.44
2023-05-14T20:31:04.357Z,101222.56
2023-05-14T20:33:31.687Z,101219.59
2023-05-14T20:35:59.339Z,101225.81
2023-05-14T20:38:29.297Z,101213.63
2023-05-14T20:40:56.970Z,101220.75
2023-05-14T20:43:27.665Z,101220.63
2023-05-14T20:45:57.272Z,101214.53
2023-05-14T20:48:24.720Z,101217.22
2023-05-14T20:50:52.050Z,101218.50
2023-05-14T20:53:19.748Z,101224.31
2023-05-14T20:55:47.008Z,101224.94
2023-05-14T20:58:14.197Z,101231.47
2023-05-14T21:00:41.475Z,101225.47
2023-05-14T21:03:08.917Z,101233.06
2023-05-14T21:05:36.552Z,101232.94
2023-05-14T21:08:03.876Z,101231.84
2023-05-14T21:10:31.122Z,101239.38
2023-05-14T21:12:58.388Z,101229.53
2023-05-14T21:15:27.350Z,101224.06
2023-05-14T21:17:54.955Z,101226.81
2023-05-14T21:20:22.221Z,101225.56
2023-05-14T21:22:49.476Z,101224.13
2023-05-14T21:25:16.867Z,101223.00
2023-05-14T21:27:44.175Z,101227.63
2023-05-14T21:30:12.100Z,101227.34
2023-05-14T21:32:39.455Z,101228.63
2023-05-14T21:35:07.134Z,101232.56
2023-05-14T21:37:34.374Z,101220.69
2023-05-14T21:40:01.803Z,101227.00
2023-05-14T21:42:29.056Z,101227.94
2023-05-14T21:44:56.412Z,101223.94
2023-05-14T21:47:23.814Z,101219.47
2023-05-14T21:49:51.400Z,101219.78
2023-05-14T21:52:18.730Z,101219.28
2023-05-14T21:54:46.099Z,101222.59
2023-05-14T21:57:13.396Z,101227.78
2023-05-14T21:59:40.691Z,101230.06
2023-05-14T22:02:08.405Z,101220.69
2023-05-14T22:04:35.695Z,101218.19
2023-05-14T22:07:03.371Z,101215.38
2023-05-14T22:09:30.821Z,101223.16
2023-05-14T22:11:58.365Z,101218.69
2023-05-14T22:14:27.333Z,101223.72
2023-05-14T22:16:54.756Z,101221.75
2023-05-14T22:19:22.493Z,101219.78
2023-05-14T22:21:49.804Z,101222.22
2023-05-14T22:24:17.119Z,101219.88
2023-05-14T22:26:44.848Z,101216.88
2023-05-14T22:29:12.029Z,101226.09
2023-05-14T22:31:39.272Z,101219.97
2023-05-14T22:34:06.606Z,101221.78
2023-05-14T22:36:33.955Z,101218.59
2023-05-14T22:39:01.450Z,101214.56
2023-05-14T22:41:28.822Z,101220.16
2023-05-14T22:43:56.117Z,101212.94
2023-05-14T22:46:23.528Z,101214.72
2023-05-14T22:48:51.106Z,101213.78
2023-05-14T22:51:18.435Z,101207.06
2023-05-14T22:53:47.049Z,101208.56
2023-05-14T22:56:14.334Z,101201.06
2023-05-14T22:58:41.623Z,101202.31
2023-05-14T23:01:09.042Z,101196.78
2023-05-14T23:03:36.253Z,101189.88
2023-05-14T23:06:03.663Z,101191.22
2023-05-14T23:08:31.380Z,101186.00
2023-05-14T23:10:58.729Z,101192.56
2023-05-14T23:13:25.969Z,101184.47
2023-05-14T23:15:53.692Z,101189.38
2023-05-14T23:18:23.077Z,101190.19
2023-05-14T23:20:50.560Z,101193.47
2023-05-14T23:23:17.857Z,101197.38
2023-05-14T23:25:45.294Z,101187.28
2023-05-14T23:28:13.116Z,101188.22
2023-05-14T23:30:40.414Z,101191.63
2023-05-14T23:33:07.769Z,101184.00
2023-05-14T23:35:38.727Z,101192.59
2023-05-14T23:38:07.004Z,101193.75
2023-05-14T23:40:34.432Z,101188.88
2023-05-14T23:43:01.733Z,101188.22
2023-05-14T23:45:29.942Z,101194.91
2023-05-14T23:47:58.155Z,101198.78
2023-05-14T23:50:25.727Z,101194.94
2023-05-14T23:52:54.154Z,101205.66
2023-05-14T23:55:21.776Z,101200.41
2023-05-14T23:57:49.164Z,101198.78
